Time;durP1;ratioP1;P1;durP2;ratioP2;P2;SDS_P1;SDS_P2;PMS_P1;PMS_P2;Temp;Humidity;BMP_temperature;BMP_pressure;BME280_temperature;BME280_humidity;BME280_pressure;Samples;Min_cycle;Max_cycle;Signal;HPM_P1;HPM_P2
2023/12/19 00:00:00;;;;;;;0.10;0.10;;;25.10;52.10;;;;;;5071172;28;20666;-43
2023/12/19 00:02:30;;;;;;;0.00;0.00;;;25.10;52.00;;;;;;5071238;28;20195;-44
2023/12/19 00:05:01;;;;;;;0.00;0.00;;;25.10;52.00;;;;;;5070866;28;20225;-41
2023/12/19 00:07:34;;;;;;;0.00;0.00;;;25.20;52.10;;;;;;5071486;28;20191;-43
2023/12/19 00:10:05;;;;;;;0.00;0.00;;;25.20;52.00;;;;;;5071003;28;20199;-44
2023/12/19 00:12:37;;;;;;;0.00;0.00;;;25.20;52.00;;;;;;5070772;28;20552;-41
2023/12/19 00:15:08;;;;;;;0.00;0.00;;;25.30;52.00;;;;;;5070786;28;20206;-41
2023/12/19 00:17:39;;;;;;;0.00;0.00;;;25.20;51.90;;;;;;5070313;28;20198;-43
2023/12/19 00:20:12;;;;;;;0.00;0.00;;;25.30;52.00;;;;;;5070737;28;20223;-42
2023/12/19 00:22:44;;;;;;;0.00;0.00;;;25.30;51.90;;;;;;5070266;28;20199;-44
2023/12/19 00:25:15;;;;;;;0.00;0.00;;;25.30;51.80;;;;;;5070496;28;20214;-44
2023/12/19 00:27:46;;;;;;;0.00;0.00;;;25.30;51.90;;;;;;5070486;28;20556;-41
2023/12/19 00:30:17;;;;;;;0.00;0.00;;;25.30;51.80;;;;;;5070397;28;20195;-43
2023/12/19 00:32:47;;;;;;;0.00;0.00;;;25.40;52.00;;;;;;5070847;28;20199;-45
2023/12/19 00:35:18;;;;;;;0.00;0.00;;;25.40;51.90;;;;;;5070633;28;20697;-41
2023/12/19 00:37:51;;;;;;;0.00;0.00;;;25.40;51.90;;;;;;5070359;28;20662;-42
2023/12/19 00:40:21;;;;;;;0.00;0.00;;;25.40;51.90;;;;;;5071498;28;20222;-41
2023/12/19 00:42:52;;;;;;;0.00;0.00;;;25.40;51.90;;;;;;5070422;28;20198;-42
2023/12/19 00:45:23;;;;;;;0.00;0.00;;;25.40;51.90;;;;;;5071123;28;20702;-42
2023/12/19 00:47:53;;;;;;;0.00;0.00;;;25.40;51.90;;;;;;5070665;28;20191;-42
2023/12/19 00:50:24;;;;;;;0.00;0.00;;;25.50;51.90;;;;;;5069971;28;20654;-42
2023/12/19 00:52:57;;;;;;;0.00;0.00;;;25.40;51.80;;;;;;5070697;28;20203;-44
2023/12/19 00:55:27;;;;;;;0.00;0.00;;;25.50;51.90;;;;;;5070163;28;20222;-41
2023/12/19 00:57:58;;;;;;;0.00;0.00;;;25.50;51.90;;;;;;5070377;28;20197;-42
2023/12/19 01:00:29;;;;;;;0.00;0.00;;;25.50;51.90;;;;;;5070349;28;20222;-43
2023/12/19 01:02:59;;;;;;;0.00;0.00;;;25.60;51.90;;;;;;5071060;28;20222;-45
2023/12/19 01:05:30;;;;;;;0.00;0.00;;;25.60;51.90;;;;;;5070113;28;20240;-41
2023/12/19 01:08:03;;;;;;;0.00;0.00;;;25.60;51.90;;;;;;5071242;28;20201;-41
2023/12/19 01:10:33;;;;;;;0.00;0.00;;;25.60;51.70;;;;;;5070334;28;20190;-41
2023/12/19 01:13:04;;;;;;;0.00;0.00;;;25.60;51.70;;;;;;5070687;28;20206;-41
2023/12/19 01:15:35;;;;;;;0.00;0.00;;;25.60;51.70;;;;;;5069372;28;20219;-42
2023/12/19 01:18:06;;;;;;;0.00;0.00;;;25.60;51.70;;;;;;5073206;28;20195;-41
2023/12/19 01:20:36;;;;;;;0.00;0.00;;;25.60;51.60;;;;;;5074389;28;20223;-43
2023/12/19 01:23:09;;;;;;;0.00;0.00;;;25.60;51.60;;;;;;5074941;28;20198;-41
2023/12/19 01:25:40;;;;;;;0.00;0.00;;;25.60;51.60;;;;;;5068189;28;20219;-41
2023/12/19 01:28:11;;;;;;;0.00;0.00;;;25.60;51.70;;;;;;5053922;28;20586;-41
2023/12/19 01:30:42;;;;;;;0.00;0.00;;;25.70;51.70;;;;;;5067096;28;20194;-43
2023/12/19 01:33:13;;;;;;;0.00;0.00;;;25.70;51.70;;;;;;5073758;28;20203;-42
2023/12/19 01:35:44;;;;;;;0.00;0.00;;;25.70;51.70;;;;;;5073868;28;20217;-42
2023/12/19 01:38:16;;;;;;;0.00;0.00;;;25.60;51.70;;;;;;5073487;28;20205;-43
2023/12/19 01:40:47;;;;;;;0.00;0.00;;;25.70;51.70;;;;;;5073938;28;20237;-41
2023/12/19 01:43:24;;;;;;;0.00;0.00;;;25.70;51.70;;;;;;5073666;28;20194;-41
2023/12/19 01:45:55;;;;;;;0.00;0.00;;;25.70;51.70;;;;;;5073359;28;20720;-43
2023/12/19 01:48:28;;;;;;;0.00;0.00;;;25.80;51.70;;;;;;5073941;28;20202;-41
2023/12/19 01:50:59;;;;;;;0.00;0.00;;;25.80;51.70;;;;;;5073651;28;20199;-42
2023/12/19 01:53:32;;;;;;;0.00;0.00;;;25.80;51.70;;;;;;5073941;28;20198;-43
2023/12/19 01:56:03;;;;;;;0.00;0.00;;;25.80;51.70;;;;;;5060733;28;20214;-46
2023/12/19 01:58:36;;;;;;;0.00;0.00;;;25.80;51.70;;;;;;5073922;28;20203;-41
2023/12/19 02:01:07;;;;;;;0.00;0.00;;;25.80;51.60;;;;;;5073081;28;20218;-44
2023/12/19 02:03:39;;;;;;;0.00;0.00;;;25.90;51.60;;;;;;5074087;28;20194;-41
2023/12/19 02:06:11;;;;;;;0.00;0.00;;;25.90;51.60;;;;;;5073819;28;20199;-43
2023/12/19 02:08:44;;;;;;;0.00;0.00;;;25.90;51.60;;;;;;5072491;28;20211;-45
2023/12/19 02:11:15;;;;;;;0.00;0.00;;;25.90;51.50;;;;;;5072910;28;20203;-44
2023/12/19 02:13:47;;;;;;;0.00;0.00;;;25.90;51.50;;;;;;5073469;28;20304;-41
2023/12/19 02:16:18;;;;;;;0.00;0.00;;;25.90;51.50;;;;;;5073165;28;20194;-41
2023/12/19 02:19:01;;;;;;;0.00;0.00;;;25.90;51.40;;;;;;5073565;28;20530;-43
2023/12/19 02:21:32;;;;;;;0.00;0.00;;;26.00;51.50;;;;;;5072932;28;20226;-41
2023/12/19 02:24:05;;;;;;;0.00;0.00;;;26.00;51.40;;;;;;5072901;28;20678;-41
2023/12/19 02:26:36;;;;;;;0.00;0.00;;;26.00;51.50;;;;;;5073002;28;20688;-41
2023/12/19 02:29:06;;;;;;;0.00;0.00;;;26.00;51.50;;;;;;5072488;28;20662;-44
2023/12/19 02:31:37;;;;;;;0.00;0.00;;;26.00;51.40;;;;;;5072087;28;20195;-42
2023/12/19 02:34:08;;;;;;;0.00;0.00;;;26.00;51.40;;;;;;5071985;28;20678;-41
2023/12/19 02:36:40;;;;;;;0.00;0.00;;;26.00;51.40;;;;;;5072284;28;20201;-41
2023/12/19 02:39:13;;;;;;;0.00;0.00;;;26.10;51.40;;;;;;5073175;28;20565;-44
2023/12/19 02:41:44;;;;;;;0.00;0.00;;;26.10;51.40;;;;;;5072344;28;20237;-42
2023/12/19 02:44:14;;;;;;;0.00;0.00;;;26.10;51.30;;;;;;5073249;28;20581;-45
2023/12/19 02:46:45;;;;;;;0.00;0.00;;;26.10;51.30;;;;;;5072358;28;20207;-41
2023/12/19 02:49:16;;;;;;;0.00;0.00;;;26.20;51.30;;;;;;5072604;28;20206;-41
2023/12/19 02:51:47;;;;;;;0.00;0.00;;;26.20;51.30;;;;;;5053004;28;20191;-41
2023/12/19 02:54:19;;;;;;;0.00;0.00;;;26.20;51.30;;;;;;5053302;28;20223;-41
2023/12/19 02:56:50;;;;;;;0.00;0.00;;;26.20;51.30;;;;;;5052873;28;20204;-44
2023/12/19 02:59:21;;;;;;;0.00;0.00;;;26.30;51.40;;;;;;5052142;28;20214;-42
2023/12/19 03:01:51;;;;;;;0.00;0.00;;;26.30;51.30;;;;;;5070232;28;20223;-41
2023/12/19 03:04:22;;;;;;;0.00;0.00;;;26.30;51.30;;;;;;5072538;28;20215;-42
2023/12/19 03:06:53;;;;;;;0.00;0.00;;;26.30;51.30;;;;;;5072365;28;20568;-41
2023/12/19 03:09:26;;;;;;;0.00;0.00;;;26.40;51.30;;;;;;5071795;28;20201;-41
2023/12/19 03:12:07;;;;;;;0.00;0.00;;;26.40;51.30;;;;;;5072857;28;20206;-41
2023/12/19 03:14:38;;;;;;;0.00;0.00;;;26.40;51.20;;;;;;5071563;28;20709;-42
2023/12/19 03:17:09;;;;;;;0.00;0.00;;;26.40;51.20;;;;;;5071765;28;20202;-41
2023/12/19 03:19:40;;;;;;;0.00;0.00;;;26.40;51.20;;;;;;5072269;28;20554;-41
2023/12/19 03:22:10;;;;;;;0.00;0.00;;;26.50;51.20;;;;;;5072099;28;20272;-43
2023/12/19 03:24:43;;;;;;;0.00;0.00;;;26.50;51.10;;;;;;5071424;28;20218;-47
2023/12/19 03:27:14;;;;;;;0.00;0.00;;;26.50;51.10;;;;;;5071775;28;20205;-43
2023/12/19 03:29:45;;;;;;;0.00;0.00;;;26.50;51.00;;;;;;5070028;28;20202;-45
2023/12/19 03:32:15;;;;;;;0.00;0.00;;;26.60;51.10;;;;;;5070979;28;20210;-44
2023/12/19 03:34:46;;;;;;;0.00;0.00;;;26.60;51.00;;;;;;5072140;28;20226;-42
2023/12/19 03:37:17;;;;;;;0.00;0.00;;;26.60;51.00;;;;;;5071797;28;20201;-43
2023/12/19 03:39:49;;;;;;;0.00;0.00;;;26.70;51.00;;;;;;5071553;28;20199;-43
2023/12/19 03:42:20;;;;;;;0.00;0.00;;;26.70;50.90;;;;;;5070879;28;20222;-42
2023/12/19 03:44:51;;;;;;;0.00;0.00;;;26.70;50.90;;;;;;5071710;28;20589;-44
2023/12/19 03:47:21;;;;;;;0.00;0.00;;;26.70;50.90;;;;;;5071029;28;20203;-42
2023/12/19 03:49:52;;;;;;;0.00;0.00;;;26.80;50.90;;;;;;5071103;28;20195;-41
2023/12/19 03:52:23;;;;;;;0.00;0.00;;;26.80;50.90;;;;;;5071981;28;20203;-43
2023/12/19 03:54:56;;;;;;;0.00;0.00;;;26.80;50.90;;;;;;5071080;28;20219;-42
2023/12/19 03:57:27;;;;;;;0.00;0.00;;;26.80;50.90;;;;;;5071573;28;20210;-41
2023/12/19 03:59:58;;;;;;;0.00;0.00;;;26.90;50.90;;;;;;5070225;28;20206;-42
2023/12/19 04:02:28;;;;;;;0.00;0.00;;;26.90;50.90;;;;;;5071471;28;20225;-43
2023/12/19 04:04:59;;;;;;;0.00;0.00;;;26.90;50.80;;;;;;5071475;28;20211;-47
2023/12/19 04:07:30;;;;;;;0.00;0.00;;;26.90;50.80;;;;;;5071225;28;20202;-49
2023/12/19 04:10:03;;;;;;;0.00;0.00;;;27.00;50.80;;;;;;5070432;28;20187;-42
2023/12/19 04:12:36;;;;;;;0.00;0.00;;;27.00;50.80;;;;;;5070705;28;20206;-42
2023/12/19 04:15:08;;;;;;;0.00;0.00;;;27.00;50.80;;;;;;5070596;28;20218;-43
2023/12/19 04:17:39;;;;;;;0.00;0.00;;;27.10;50.80;;;;;;5070606;28;20286;-45
2023/12/19 04:20:10;;;;;;;0.00;0.00;;;27.10;50.80;;;;;;5071556;28;20647;-44
2023/12/19 04:22:41;;;;;;;0.00;0.00;;;27.10;50.70;;;;;;5069970;28;20313;-47
2023/12/19 04:25:14;;;;;;;0.00;0.00;;;27.10;50.70;;;;;;5070316;28;20207;-42
2023/12/19 04:27:45;;;;;;;0.00;0.00;;;27.10;50.60;;;;;;5070449;28;20205;-47
2023/12/19 04:30:16;;;;;;;0.00;0.00;;;27.20;50.60;;;;;;5070282;28;20203;-44
2023/12/19 04:32:48;;;;;;;0.00;0.00;;;27.20;50.60;;;;;;5070596;28;20194;-42
2023/12/19 04:35:18;;;;;;;0.00;0.00;;;27.20;50.50;;;;;;5071184;28;20221;-42
2023/12/19 04:37:49;;;;;;;0.00;0.00;;;27.30;50.60;;;;;;5071524;28;20195;-41
2023/12/19 04:40:22;;;;;;;0.00;0.00;;;27.30;50.50;;;;;;5069950;28;20194;-42
2023/12/19 04:42:53;;;;;;;0.00;0.00;;;27.30;50.50;;;;;;5070841;28;20199;-41
2023/12/19 04:45:23;;;;;;;0.00;0.00;;;27.30;50.50;;;;;;5070320;28;20218;-42
2023/12/19 04:47:54;;;;;;;0.00;0.00;;;27.40;50.50;;;;;;5070436;28;20210;-43
2023/12/19 04:50:25;;;;;;;0.00;0.00;;;27.40;51.10;;;;;;5070773;28;20195;-41
2023/12/19 04:52:55;;;;;;;0.00;0.00;;;27.40;50.40;;;;;;5071316;28;20194;-42
2023/12/19 04:55:28;;;;;;;0.00;0.00;;;27.40;50.40;;;;;;5070628;28;20219;-42
2023/12/19 04:57:59;;;;;;;0.00;0.00;;;27.40;50.30;;;;;;5071000;28;20199;-43
2023/12/19 05:00:29;;;;;;;0.00;0.00;;;27.50;50.40;;;;;;5069167;28;20199;-43
2023/12/19 05:03:00;;;;;;;0.00;0.00;;;27.50;50.40;;;;;;5070020;28;20187;-42
2023/12/19 05:05:31;;;;;;;0.00;0.00;;;27.50;50.40;;;;;;5070635;28;20210;-42
2023/12/19 05:08:02;;;;;;;0.00;0.00;;;27.50;50.30;;;;;;5070316;28;20297;-44
2023/12/19 05:10:35;;;;;;;0.00;0.00;;;27.60;50.30;;;;;;5070326;28;20191;-42
2023/12/19 05:13:06;;;;;;;0.00;0.00;;;27.60;50.40;;;;;;5068958;28;20190;-45
2023/12/19 05:15:37;;;;;;;0.00;0.00;;;27.60;50.30;;;;;;5069370;28;20221;-43
2023/12/19 05:18:08;;;;;;;0.00;0.00;;;27.60;50.30;;;;;;5069566;28;20214;-48
2023/12/19 05:20:39;;;;;;;0.00;0.00;;;27.60;50.30;;;;;;5070144;28;20217;-41
2023/12/19 05:23:09;;;;;;;0.00;0.00;;;27.70;50.40;;;;;;5069892;28;20195;-44
2023/12/19 05:25:42;;;;;;;0.00;0.00;;;27.70;50.40;;;;;;5070605;28;20585;-42
2023/12/19 05:28:13;;;;;;;0.00;0.00;;;27.70;50.30;;;;;;5070035;28;20226;-50
2023/12/19 05:30:43;;;;;;;0.00;0.00;;;27.70;50.30;;;;;;5069600;28;20206;-42
2023/12/19 05:33:14;;;;;;;0.00;0.00;;;27.70;50.20;;;;;;5070554;28;20277;-47
2023/12/19 05:35:45;;;;;;;0.00;0.00;;;27.80;50.30;;;;;;5070400;28;20211;-47
2023/12/19 05:38:16;;;;;;;0.00;0.00;;;27.80;50.30;;;;;;5070733;28;20199;-44
2023/12/19 05:40:48;;;;;;;0.00;0.00;;;27.80;50.30;;;;;;5069718;28;20194;-45
2023/12/19 05:43:19;;;;;;;0.00;0.00;;;27.80;50.20;;;;;;5069244;28;20203;-45
2023/12/19 05:45:50;;;;;;;0.00;0.00;;;27.80;50.10;;;;;;5069961;28;20215;-43
2023/12/19 05:48:22;;;;;;;0.00;0.00;;;27.80;50.10;;;;;;5069043;28;20218;-43
2023/12/19 05:50:54;;;;;;;0.00;0.00;;;27.80;50.20;;;;;;5069758;28;20195;-42
2023/12/19 05:53:24;;;;;;;0.00;0.00;;;27.80;50.10;;;;;;5069479;28;20218;-47
2023/12/19 05:55:57;;;;;;;0.00;0.00;;;27.80;50.10;;;;;;5070720;28;20237;-44
2023/12/19 05:58:28;;;;;;;0.00;0.00;;;27.90;50.20;;;;;;5068939;28;20710;-47
2023/12/19 06:00:59;;;;;;;0.00;0.00;;;27.90;50.10;;;;;;5069630;28;20210;-45
2023/12/19 06:03:30;;;;;;;0.00;0.00;;;27.90;50.10;;;;;;5071595;28;20191;-44
2023/12/19 06:06:00;;;;;;;0.00;0.00;;;27.90;50.10;;;;;;5072535;28;20215;-45
2023/12/19 06:08:31;;;;;;;0.00;0.00;;;27.90;50.00;;;;;;5072915;28;20195;-42
2023/12/19 06:11:04;;;;;;;0.00;0.00;;;27.90;50.00;;;;;;5054238;28;20223;-46
2023/12/19 06:13:35;;;;;;;0.00;0.00;;;27.90;50.00;;;;;;5072521;28;20198;-49
2023/12/19 06:16:06;;;;;;;0.00;0.00;;;28.00;50.00;;;;;;5073589;28;20670;-43
2023/12/19 06:18:37;;;;;;;0.00;0.00;;;28.00;49.90;;;;;;5073303;28;20202;-49
2023/12/19 06:21:07;;;;;;;0.00;0.00;;;28.00;49.90;;;;;;5072566;28;20581;-42
2023/12/19 06:23:38;;;;;;;0.00;0.00;;;28.00;49.80;;;;;;5072917;28;20210;-45
2023/12/19 06:26:11;;;;;;;0.00;0.00;;;28.00;49.80;;;;;;5072538;28;20557;-45
2023/12/19 06:28:41;;;;;;;0.00;0.00;;;28.00;49.70;;;;;;5071743;28;20202;-43
2023/12/19 06:31:12;;;;;;;0.00;0.00;;;28.00;49.70;;;;;;5073757;28;20197;-48
2023/12/19 06:33:43;;;;;;;0.00;0.00;;;28.10;49.70;;;;;;5073806;28;20197;-45
2023/12/19 06:36:28;;;;;;;0.00;0.00;;;28.10;49.70;;;;;;5073296;28;20572;-44
2023/12/19 06:38:58;;;;;;;0.00;0.00;;;28.10;49.80;;;;;;5073707;28;20198;-45
2023/12/19 06:41:31;;;;;;;0.00;0.00;;;28.10;49.70;;;;;;5072794;28;20222;-43
2023/12/19 06:44:02;;;;;;;0.00;0.00;;;28.10;49.70;;;;;;5072548;28;20221;-44
2023/12/19 06:46:32;;;;;;;0.00;0.00;;;28.10;49.60;;;;;;5072807;28;20559;-46
2023/12/19 06:49:03;;;;;;;0.00;0.00;;;28.10;49.60;;;;;;5072892;28;20210;-49
2023/12/19 06:51:34;;;;;;;0.00;0.00;;;28.20;49.60;;;;;;5072871;28;20689;-44
2023/12/19 06:54:04;;;;;;;0.00;0.00;;;28.10;49.40;;;;;;5072976;28;20211;-47
2023/12/19 06:56:37;;;;;;;0.00;0.00;;;28.20;49.40;;;;;;5073057;28;20230;-44
2023/12/19 06:59:09;;;;;;;0.00;0.00;;;28.20;49.40;;;;;;5072237;28;20283;-48
2023/12/19 07:01:40;;;;;;;0.00;0.00;;;28.20;49.40;;;;;;5072450;28;20222;-46
2023/12/19 07:04:11;;;;;;;0.00;0.00;;;28.20;49.50;;;;;;5073126;28;20218;-43
2023/12/19 07:06:41;;;;;;;0.00;0.00;;;28.30;49.50;;;;;;5072173;28;20285;-43
2023/12/19 07:09:14;;;;;;;0.00;0.00;;;28.20;49.40;;;;;;5071851;28;20562;-48
2023/12/19 07:11:47;;;;;;;0.00;0.00;;;28.30;49.50;;;;;;5072360;28;20256;-45
2023/12/19 07:14:17;;;;;;;0.00;0.00;;;28.30;49.40;;;;;;5070845;28;20230;-49
2023/12/19 07:16:48;;;;;;;0.00;0.00;;;28.30;49.40;;;;;;5072568;28;20202;-45
2023/12/19 07:19:19;;;;;;;0.00;0.00;;;28.30;49.40;;;;;;5072617;28;20202;-46
2023/12/19 07:21:50;;;;;;;0.00;0.00;;;28.30;49.30;;;;;;5072249;28;20219;-42
2023/12/19 07:24:21;;;;;;;0.00;0.00;;;28.30;49.20;;;;;;5072100;28;20216;-43
2023/12/19 07:26:54;;;;;;;0.00;0.00;;;28.30;49.20;;;;;;5071849;28;20588;-48
2023/12/19 07:29:24;;;;;;;0.00;0.00;;;28.30;49.20;;;;;;5071939;28;20225;-46
2023/12/19 07:31:55;;;;;;;0.00;0.00;;;28.30;49.20;;;;;;5072314;28;20650;-45
2023/12/19 07:34:26;;;;;;;0.00;0.00;;;28.30;49.70;;;;;;5071891;28;20222;-46
2023/12/19 07:36:56;;;;;;;0.00;0.00;;;28.30;49.20;;;;;;5072092;28;20578;-43
2023/12/19 07:39:27;;;;;;;0.00;0.00;;;28.30;49.10;;;;;;5071701;28;20199;-46
2023/12/19 07:42:00;;;;;;;0.00;0.00;;;28.30;49.00;;;;;;5071536;28;20590;-45
2023/12/19 07:44:30;;;;;;;0.00;0.00;;;28.30;49.00;;;;;;5071762;28;20589;-42
2023/12/19 07:47:01;;;;;;;0.00;0.00;;;28.20;48.90;;;;;;5071850;28;20191;-44
2023/12/19 07:49:32;;;;;;;0.00;0.00;;;28.30;48.90;;;;;;5071795;28;20203;-45
2023/12/19 07:52:04;;;;;;;0.00;0.00;;;28.30;48.90;;;;;;5067466;28;20673;-48
2023/12/19 07:54:34;;;;;;;0.00;0.00;;;28.20;48.70;;;;;;5067761;28;20647;-42
2023/12/19 07:57:08;;;;;;;0.00;0.00;;;28.20;48.70;;;;;;5070734;28;20207;-44
2023/12/19 07:59:39;;;;;;;0.00;0.00;;;28.10;48.60;;;;;;5069879;28;20217;-42
2023/12/19 08:02:10;;;;;;;0.00;0.00;;;28.20;48.60;;;;;;5071305;28;20222;-44
2023/12/19 08:04:42;;;;;;;0.00;0.00;;;28.10;48.50;;;;;;5071149;28;20215;-48
2023/12/19 08:07:13;;;;;;;0.00;0.00;;;28.10;48.50;;;;;;5070699;28;20643;-49
2023/12/19 08:09:44;;;;;;;0.00;0.00;;;28.10;48.50;;;;;;5071199;28;20191;-49
2023/12/19 08:12:16;;;;;;;0.00;0.00;;;28.10;48.60;;;;;;5070181;28;20579;-47
2023/12/19 08:14:47;;;;;;;0.00;0.00;;;28.00;48.50;;;;;;5070983;28;20586;-44
2023/12/19 08:17:18;;;;;;;0.00;0.00;;;28.00;48.40;;;;;;5070169;28;20206;-45
2023/12/19 08:19:49;;;;;;;0.00;0.00;;;28.00;48.50;;;;;;5070977;28;20614;-43
2023/12/19 08:22:20;;;;;;;0.00;0.00;;;28.00;48.40;;;;;;5070572;28;20218;-43
2023/12/19 08:24:51;;;;;;;0.00;0.00;;;27.90;48.40;;;;;;5070709;28;20586;-42
2023/12/19 08:27:28;;;;;;;0.00;0.00;;;27.90;48.40;;;;;;5068635;28;20210;-48
2023/12/19 08:29:58;;;;;;;0.00;0.00;;;27.90;48.40;;;;;;5069064;28;20723;-46
2023/12/19 08:32:29;;;;;;;0.00;0.00;;;27.90;48.40;;;;;;5049949;28;20214;-44
2023/12/19 08:35:00;;;;;;;0.00;0.00;;;27.80;48.40;;;;;;5059894;28;20211;-50
2023/12/19 08:37:31;;;;;;;0.00;0.00;;;27.80;48.50;;;;;;5070866;28;20244;-46
2023/12/19 08:40:03;;;;;;;0.00;0.00;;;27.80;48.40;;;;;;5070773;28;20659;-47
2023/12/19 08:42:36;;;;;;;0.00;0.00;;;27.80;48.50;;;;;;5070063;28;20222;-42
2023/12/19 08:45:07;;;;;;;0.00;0.00;;;27.80;48.50;;;;;;5053246;28;20705;-45
2023/12/19 08:47:38;;;;;;;0.00;0.00;;;27.80;48.50;;;;;;5070566;28;20194;-44
2023/12/19 08:50:10;;;;;;;0.00;0.00;;;27.70;48.40;;;;;;5070154;28;20195;-43
2023/12/19 08:52:42;;;;;;;0.00;0.00;;;27.70;48.40;;;;;;5071197;28;20195;-44
2023/12/19 08:55:13;;;;;;;0.00;0.00;;;27.70;48.40;;;;;;5069620;28;20723;-44
2023/12/19 08:57:47;;;;;;;0.00;0.00;;;27.70;48.40;;;;;;5069577;28;20199;-44
2023/12/19 09:00:19;;;;;;;0.00;0.00;;;27.60;48.40;;;;;;5069932;28;20210;-45
2023/12/19 09:02:58;;;;;;;0.00;0.00;;;27.60;48.40;;;;;;5070754;28;20222;-45
2023/12/19 09:05:29;;;;;;;0.00;0.00;;;27.60;48.40;;;;;;5071039;28;20218;-43
2023/12/19 09:08:00;;;;;;;0.00;0.00;;;27.50;48.30;;;;;;5071031;28;20194;-45
2023/12/19 09:10:31;;;;;;;0.00;0.00;;;27.50;48.30;;;;;;5070175;28;20540;-43
2023/12/19 09:13:05;;;;;;;0.00;0.00;;;27.50;48.40;;;;;;5070041;28;20209;-49
2023/12/19 09:15:35;;;;;;;0.00;0.00;;;27.50;48.40;;;;;;5070072;28;20512;-48
2023/12/19 09:18:07;;;;;;;0.00;0.00;;;27.40;48.30;;;;;;5070532;28;20198;-47
2023/12/19 09:20:37;;;;;;;0.00;0.00;;;27.40;48.40;;;;;;5070746;28;20202;-45
2023/12/19 09:23:08;;;;;;;0.00;0.00;;;27.40;48.40;;;;;;5069659;28;20269;-46
2023/12/19 09:25:39;;;;;;;0.00;0.00;;;27.40;48.40;;;;;;5069756;28;20211;-45
2023/12/19 09:28:12;;;;;;;0.00;0.00;;;27.30;48.40;;;;;;5070467;28;20203;-44
2023/12/19 09:30:43;;;;;;;0.00;0.00;;;27.30;48.50;;;;;;5070728;28;20276;-47
2023/12/19 09:33:13;;;;;;;0.00;0.00;;;27.30;48.40;;;;;;5071213;28;20610;-46
2023/12/19 09:35:44;;;;;;;0.00;0.00;;;27.30;48.50;;;;;;5069972;28;20221;-50
2023/12/19 09:38:15;;;;;;;0.00;0.00;;;27.20;48.40;;;;;;5071057;28;20198;-49
2023/12/19 09:40:46;;;;;;;0.00;0.00;;;27.20;48.40;;;;;;5073435;28;20199;-44
2023/12/19 09:43:18;;;;;;;0.00;0.00;;;27.20;48.40;;;;;;5073270;28;20811;-49
2023/12/19 09:45:50;;;;;;;0.00;0.00;;;27.20;48.40;;;;;;5073833;28;20215;-46
2023/12/19 09:48:21;;;;;;;0.00;0.00;;;27.10;48.30;;;;;;5074560;28;20198;-44
2023/12/19 09:50:54;;;;;;;0.00;0.00;;;27.10;48.40;;;;;;5073696;28;20226;-45
2023/12/19 09:53:27;;;;;;;0.00;0.00;;;27.10;48.40;;;;;;5074033;28;20186;-47
2023/12/19 09:55:57;;;;;;;0.00;0.00;;;27.10;48.40;;;;;;5073738;28;20218;-42
2023/12/19 09:58:30;;;;;;;0.00;0.00;;;27.10;48.40;;;;;;5072349;28;20659;-45
2023/12/19 10:01:02;;;;;;;0.00;0.00;;;27.00;48.40;;;;;;5073349;28;20210;-50
2023/12/19 10:03:32;;;;;;;0.00;0.00;;;27.00;48.40;;;;;;5073477;28;20240;-42
2023/12/19 10:06:03;;;;;;;0.00;0.00;;;27.00;48.40;;;;;;5074225;28;20219;-42
2023/12/19 10:08:35;;;;;;;0.00;0.00;;;27.00;48.50;;;;;;5072782;28;20209;-44
2023/12/19 10:11:07;;;;;;;0.00;0.00;;;27.00;48.50;;;;;;5072680;28;20222;-41
2023/12/19 10:13:40;;;;;;;0.00;0.00;;;26.90;48.40;;;;;;5073246;28;20199;-41
2023/12/19 10:16:11;;;;;;;0.00;0.00;;;26.90;48.50;;;;;;5073042;28;20207;-41
2023/12/19 10:18:42;;;;;;;0.00;0.00;;;26.90;48.50;;;;;;5072875;28;20198;-41
2023/12/19 10:21:13;;;;;;;0.00;0.00;;;26.90;48.50;;;;;;5073193;28;20279;-41
2023/12/19 10:23:44;;;;;;;0.00;0.00;;;26.90;48.60;;;;;;5072747;28;20233;-43
2023/12/19 10:26:15;;;;;;;0.00;0.00;;;26.80;48.50;;;;;;5073321;28;20199;-41
2023/12/19 10:28:57;;;;;;;0.00;0.00;;;26.80;48.50;;;;;;5072783;28;20199;-41
2023/12/19 10:31:28;;;;;;;0.00;0.00;;;26.80;48.50;;;;;;5073198;28;20570;-42
2023/12/19 10:33:59;;;;;;;0.00;0.00;;;26.80;48.50;;;;;;5071854;28;20199;-41
2023/12/19 10:36:30;;;;;;;0.00;0.00;;;26.70;48.50;;;;;;5073130;28;20539;-44
2023/12/19 10:39:02;;;;;;;0.00;0.00;;;26.70;48.40;;;;;;5073035;28;20732;-41
2023/12/19 10:41:34;;;;;;;0.00;0.00;;;26.70;48.50;;;;;;5072059;28;20209;-41
2023/12/19 10:44:07;;;;;;;0.00;0.00;;;26.70;48.40;;;;;;5072069;28;20227;-44
2023/12/19 10:46:38;;;;;;;0.00;0.00;;;26.70;48.50;;;;;;5072743;28;20643;-43
2023/12/19 10:49:09;;;;;;;0.00;0.00;;;26.70;48.50;;;;;;5072721;28;20206;-48
2023/12/19 10:51:41;;;;;;;0.00;0.00;;;26.60;48.50;;;;;;5073070;28;20221;-41
2023/12/19 10:54:13;;;;;;;0.00;0.00;;;26.60;48.40;;;;;;5072329;28;20226;-41
2023/12/19 10:57:04;;;;;;;0.00;0.00;;;26.60;48.50;;;;;;5072954;28;20195;-41
2023/12/19 10:59:47;;;;;;;0.00;0.00;;;26.60;48.60;;;;;;5071874;28;20264;-41
2023/12/19 11:02:31;;;;;;;0.00;0.00;;;26.60;48.60;;;;;;5072174;28;20191;-43
2023/12/19 11:05:12;;;;;;;0.00;0.00;;;26.50;48.50;;;;;;5073149;28;20218;-42
2023/12/19 11:07:46;;;;;;;0.00;0.00;;;26.50;48.50;;;;;;5072382;28;20404;-41
2023/12/19 11:10:20;;;;;;;0.00;0.00;;;26.50;48.60;;;;;;5071823;28;20658;-41
2023/12/19 11:12:53;;;;;;;0.00;0.00;;;26.50;48.60;;;;;;5072644;28;20207;-41
2023/12/19 11:15:27;;;;;;;0.00;0.00;;;26.50;48.60;;;;;;5070817;28;20218;-41
2023/12/19 11:18:01;;;;;;;0.00;0.00;;;26.40;48.60;;;;;;5071875;28;20198;-41
2023/12/19 11:20:42;;;;;;;0.00;0.00;;;26.40;48.60;;;;;;5072163;28;20282;-40
2023/12/19 11:23:23;;;;;;;0.00;0.00;;;26.40;48.60;;;;;;5072248;28;20219;-41
2023/12/19 11:25:57;;;;;;;0.00;0.00;;;26.40;48.60;;;;;;5071601;28;20237;-41
2023/12/19 11:28:29;;;;;;;0.00;0.00;;;26.30;48.60;;;;;;5071813;28;20192;-42
2023/12/19 11:31:01;;;;;;;0.00;0.00;;;26.30;48.50;;;;;;5072114;28;20201;-41
2023/12/19 11:33:37;;;;;;;0.00;0.00;;;26.30;48.60;;;;;;5072156;28;20198;-42
2023/12/19 11:36:15;;;;;;;0.00;0.00;;;26.30;49.20;;;;;;5068786;28;20248;-46
2023/12/19 11:38:46;;;;;;;0.00;0.00;;;26.20;49.10;;;;;;5070330;28;20201;-41
2023/12/19 11:41:39;;;;;;;0.00;0.00;;;26.20;48.50;;;;;;5068990;28;20195;-41
2023/12/19 11:44:09;;;;;;;0.00;0.00;;;26.20;48.60;;;;;;5069697;28;20215;-42
2023/12/19 11:46:42;;;;;;;0.00;0.00;;;26.20;48.60;;;;;;5069499;28;20199;-42
2023/12/19 11:49:13;;;;;;;0.00;0.00;;;26.20;48.60;;;;;;5070438;28;20256;-42
2023/12/19 11:51:53;;;;;;;0.00;0.00;;;26.10;48.60;;;;;;5070680;28;20232;-41
2023/12/19 11:54:24;;;;;;;0.00;0.00;;;26.10;48.70;;;;;;5071788;28;20272;-42
2023/12/19 11:57:03;;;;;;;0.00;0.00;;;26.10;48.70;;;;;;5070892;28;20183;-40
2023/12/19 12:00:00;;;;;;;0.00;0.00;;;26.10;49.30;;;;;;5068763;28;20231;-41
2023/12/19 12:02:34;;;;;;;0.00;0.00;;;26.00;48.70;;;;;;5032419;28;20263;-41
2023/12/19 12:05:15;;;;;;;0.00;0.00;;;26.00;48.70;;;;;;5070131;28;20213;-41
2023/12/19 12:07:49;;;;;;;0.00;0.00;;;26.00;48.70;;;;;;5069685;28;20261;-42
2023/12/19 12:10:21;;;;;;;0.00;0.00;;;26.00;48.80;;;;;;5071355;28;20191;-41
2023/12/19 12:12:52;;;;;;;0.00;0.00;;;26.00;48.80;;;;;;5071108;28;20281;-46
2023/12/19 12:15:24;;;;;;;0.00;0.00;;;25.90;48.70;;;;;;5071221;28;20215;-48
2023/12/19 12:18:05;;;;;;;0.00;0.00;;;25.90;48.80;;;;;;5071450;28;20191;-43
2023/12/19 12:20:36;;;;;;;0.00;0.00;;;25.90;48.80;;;;;;5070867;28;20191;-42
2023/12/19 12:23:07;;;;;;;0.00;0.00;;;25.90;48.80;;;;;;5068999;28;20548;-43
2023/12/19 12:25:38;;;;;;;0.00;0.00;;;25.90;48.80;;;;;;5071006;28;20225;-47
2023/12/19 12:28:14;;;;;;;0.00;0.00;;;25.90;48.80;;;;;;5071001;28;20199;-42
2023/12/19 12:30:46;;;;;;;0.00;0.00;;;25.90;48.90;;;;;;5068214;28;20685;-45
2023/12/19 12:33:19;;;;;;;0.00;0.00;;;25.80;48.80;;;;;;5070292;28;20195;-41
2023/12/19 12:35:49;;;;;;;0.00;0.00;;;25.80;48.80;;;;;;5069299;28;20297;-44
2023/12/19 12:38:22;;;;;;;0.00;0.00;;;25.80;48.90;;;;;;5071262;28;20654;-44
2023/12/19 12:41:00;;;;;;;0.00;0.00;;;25.70;48.80;;;;;;5070469;28;20218;-46
2023/12/19 12:43:36;;;;;;;0.10;0.10;;;25.80;48.90;;;;;;5070140;28;20215;-46
2023/12/19 12:46:09;;;;;;;0.00;0.00;;;25.70;48.90;;;;;;5069022;28;20186;-42
2023/12/19 12:48:44;;;;;;;0.10;0.10;;;25.70;48.90;;;;;;5070986;28;20195;-43
2023/12/19 12:51:18;;;;;;;0.00;0.00;;;25.70;48.90;;;;;;5071173;28;20700;-41
2023/12/19 12:53:55;;;;;;;0.00;0.00;;;25.70;48.90;;;;;;5068789;28;20198;-46
2023/12/19 12:56:32;;;;;;;0.00;0.00;;;25.70;48.90;;;;;;5068178;28;20210;-42
2023/12/19 12:59:03;;;;;;;0.00;0.00;;;25.60;48.80;;;;;;5067663;28;20187;-42
2023/12/19 13:01:34;;;;;;;0.00;0.00;;;25.60;48.80;;;;;;5070585;28;20195;-43
2023/12/19 13:04:07;;;;;;;0.00;0.00;;;25.60;48.90;;;;;;5068620;28;20587;-42
2023/12/19 13:06:41;;;;;;;0.00;0.00;;;25.60;48.80;;;;;;5070569;28;20210;-41
2023/12/19 13:09:13;;;;;;;0.00;0.00;;;25.60;48.90;;;;;;5069468;28;20187;-47
2023/12/19 13:11:44;;;;;;;0.00;0.00;;;25.60;48.80;;;;;;5068134;28;20626;-42